Startpagina
METAR-TAF:

METAR-TAF

Vliegvelden :

Brussels Airport. Zaventem

Brussel, België

breedte: 50-54N, lengte: 004-32E, hoogte: 55 m

Actueel weer

Dit bericht is 15 minuten geleden gemaakt, om 10:50 UTC
Wind 5 kt uit het westen
Temperatuur 16°C
Vochtigheid 82%
Druk 1016 hPa
Zicht 10 km of meer
Verspreide wolken op 4700 ft
Weinig wolken op 5500 ft, Stapelwolken.

METAR: EBBR 271050Z 28005KT 9999 SCT047 FEW055TCU 16/13 Q1016 RESHRA TEMPO VRB15G25KT 3500 SHRA

Tijdstip: 13:05 (11:05 UTC)

Verwachting

Dit bericht is 6 uur en het 2 minuten geleden gemaakt, om 05:03 UTC
Verwachting geldig van 27 om 06 UTC tot 28 om 12 UTC
Wind 5 kt uit het westzuidwesten
Zicht 10 km of meer
Weinig wolken op 4000 ft
Kans 30% :
Tijdelijke
van 27 om 10 UTC tot 27 om 17 UTC
Wind 15 kt uit variabele richting met uitschieters tot 25 kt
Zicht: 3500 m
regenbuien, onweer, regen

TAF: EBBR 270503Z 2706/2812 24005KT 9999 FEW040 PROB30 TEMPO 2710/2717 VRB15G25KT 3500 SHRA TSRA

Waarnemingen en weersverwachtingen van meer dan 4000 vliegvelden (METAR en TAF).

De beschikbare stations zijn de gele en rode punten op de kaart.

Ga met uw muis naar het station om de naam te zien.

Klik dan om waarnemingen en weersverwachtingen te zien.

kaart wijzigen: klik op de groene knoppen met een zwart kruis om in te zoomen, op de groene knop met een streepje om uit te zoomen of op de groene pijlen voor aangrenzende kaarten.


METAR-TAF: